Time;durP1;ratioP1;P1;durP2;ratioP2;P2;SDS_P1;SDS_P2;PMS_P1;PMS_P2;Temp;Humidity;BMP_temperature;BMP_pressure;BME280_temperature;BME280_humidity;BME280_pressure;Samples;Min_cycle;Max_cycle;Signal;HPM_P1;HPM_P2
2022/01/15 00:00:19;;;;;;;54.80;22.00;;;8.20;99.90;;;;;;5071946;28;20068;-71
2022/01/15 00:02:45;;;;;;;55.53;21.58;;;8.20;99.90;;;;;;5056253;28;20473;-70
2022/01/15 00:05:11;;;;;;;50.13;21.55;;;8.20;99.90;;;;;;5056727;28;20076;-72
2022/01/15 00:07:38;;;;;;;51.20;20.85;;;8.10;99.90;;;;;;5048277;28;20436;-73
2022/01/15 00:10:06;;;;;;;53.08;21.40;;;8.20;99.90;;;;;;5064811;28;20025;-72
2022/01/15 00:12:38;;;;;;;51.92;21.30;;;8.20;99.90;;;;;;5057257;28;20036;-72
2022/01/15 00:15:05;;;;;;;54.80;20.00;;;8.20;99.90;;;;;;5062694;28;20044;-73
2022/01/15 00:17:46;;;;;;;55.60;22.45;;;8.20;99.90;;;;;;5045822;28;20473;-69
2022/01/15 00:20:16;;;;;;;54.17;21.97;;;8.20;99.90;;;;;;5059560;28;20045;-69
2022/01/15 00:22:43;;;;;;;54.47;22.30;;;8.30;99.90;;;;;;5060406;28;20265;-71
2022/01/15 00:25:09;;;;;;;54.00;21.92;;;8.30;99.90;;;;;;5059445;28;20037;-71
2022/01/15 00:27:35;;;;;;;60.53;22.58;;;8.30;99.90;;;;;;5054776;28;20093;-71
2022/01/15 00:30:02;;;;;;;58.42;22.08;;;8.30;99.90;;;;;;5066902;28;20037;-72
2022/01/15 00:32:28;;;;;;;60.75;23.25;;;8.30;99.90;;;;;;5069223;28;20040;-72
2022/01/15 00:34:54;;;;;;;55.88;20.98;;;8.20;99.90;;;;;;5057895;28;20028;-71
2022/01/15 00:37:19;;;;;;;54.92;21.17;;;8.10;99.90;;;;;;5067835;28;20032;-71
2022/01/15 00:39:45;;;;;;;58.63;23.38;;;8.10;99.90;;;;;;5056959;28;20033;-73
2022/01/15 00:42:10;;;;;;;57.63;21.60;;;8.00;99.90;;;;;;5054273;28;20033;-72
2022/01/15 00:44:38;;;;;;;59.25;23.00;;;8.00;99.90;;;;;;5053967;28;20398;-71
2022/01/15 00:47:04;;;;;;;54.45;21.25;;;8.00;99.90;;;;;;5054123;28;20021;-72
2022/01/15 00:49:30;;;;;;;48.15;19.58;;;8.00;99.90;;;;;;5054078;28;20351;-72
2022/01/15 00:51:55;;;;;;;53.00;20.70;;;8.00;99.90;;;;;;5053254;28;20033;-71
2022/01/15 00:54:21;;;;;;;52.67;20.25;;;7.90;99.90;;;;;;5059648;28;20442;-72
2022/01/15 00:56:46;;;;;;;51.08;19.45;;;7.90;99.90;;;;;;5068130;28;20086;-72
2022/01/15 00:59:14;;;;;;;49.78;17.83;;;7.90;99.90;;;;;;5061992;28;20028;-72
2022/01/15 01:01:39;;;;;;;44.30;16.98;;;7.80;99.90;;;;;;5062355;28;20040;-73
2022/01/15 01:04:05;;;;;;;49.05;20.38;;;7.70;99.90;;;;;;5044431;28;20135;-71
2022/01/15 01:06:31;;;;;;;49.10;18.98;;;7.60;99.90;;;;;;5062363;28;20020;-72
2022/01/15 01:08:56;;;;;;;48.10;18.52;;;7.50;99.90;;;;;;5061698;28;20021;-73
2022/01/15 01:11:31;;;;;;;55.08;18.02;;;7.50;99.90;;;;;;5060601;28;20033;-71
2022/01/15 01:24:48;;;;;;;51.15;16.77;;;7.40;99.90;;;;;;5061641;28;20044;-72
2022/01/15 01:27:24;;;;;;;47.33;17.63;;;7.40;99.90;;;;;;5062651;28;20360;-71
2022/01/15 01:32:43;;;;;;;57.78;19.20;;;7.40;99.90;;;;;;5062157;28;20061;-73
2022/01/15 01:35:14;;;;;;;47.33;17.00;;;7.30;99.90;;;;;;5059992;28;20024;-70
2022/01/15 01:37:45;;;;;;;52.05;18.67;;;7.30;99.90;;;;;;5056964;28;20123;-71
2022/01/15 01:40:25;;;;;;;51.83;17.45;;;7.40;99.90;;;;;;5043810;28;20056;-71
2022/01/15 01:43:06;;;;;;;54.60;19.00;;;7.40;99.90;;;;;;5058007;28;20029;-70
2022/01/15 01:45:33;;;;;;;48.50;18.30;;;7.40;99.90;;;;;;5071090;28;20040;-71
2022/01/15 01:47:58;;;;;;;50.13;18.52;;;7.40;99.90;;;;;;5070851;28;20073;-72
2022/01/15 01:50:27;;;;;;;54.13;18.75;;;7.40;99.90;;;;;;5057746;28;20476;-71
2022/01/15 01:52:58;;;;;;;56.10;18.10;;;7.40;99.90;;;;;;5058129;28;20093;-71
2022/01/15 01:55:26;;;;;;;52.33;18.83;;;7.40;99.90;;;;;;5059278;28;20035;-72
2022/01/15 01:57:57;;;;;;;44.38;16.48;;;7.30;99.90;;;;;;5055288;28;20067;-70
2022/01/15 02:00:24;;;;;;;48.30;17.02;;;7.30;99.90;;;;;;5067301;28;20087;-72
2022/01/15 02:02:51;;;;;;;52.70;16.83;;;7.30;99.90;;;;;;5057385;28;20021;-73
2022/01/15 02:05:18;;;;;;;47.53;17.45;;;7.30;99.90;;;;;;5067802;28;20083;-71
2022/01/15 02:07:45;;;;;;;50.15;19.05;;;7.30;99.90;;;;;;5061564;28;20020;-70
2022/01/15 02:10:13;;;;;;;46.17;16.55;;;7.30;99.90;;;;;;5059086;28;20036;-71
2022/01/15 02:12:41;;;;;;;52.50;18.08;;;7.20;99.90;;;;;;5055098;28;20063;-72
2022/01/15 02:15:09;;;;;;;43.47;16.50;;;7.20;99.90;;;;;;5068514;28;20040;-72
2022/01/15 02:17:36;;;;;;;46.70;17.33;;;7.20;99.90;;;;;;5042386;28;20032;-72
2022/01/15 02:20:34;;;;;;;44.25;16.73;;;7.20;99.90;;;;;;5070767;28;20029;-71
2022/01/15 02:25:51;;;;;;;46.22;16.25;;;7.20;99.90;;;;;;5053833;28;20048;-73
2022/01/15 02:28:22;;;;;;;47.53;15.77;;;7.20;99.90;;;;;;5066062;28;20532;-72
2022/01/15 02:31:03;;;;;;;45.40;16.27;;;7.20;99.90;;;;;;5055778;28;20131;-71
2022/01/15 02:33:29;;;;;;;50.85;17.30;;;7.20;99.90;;;;;;5064868;28;20028;-72
2022/01/15 02:35:55;;;;;;;46.38;16.52;;;7.20;99.90;;;;;;5044711;28;20028;-70
2022/01/15 02:38:23;;;;;;;44.15;15.68;;;7.20;99.90;;;;;;5066206;28;20035;-72
2022/01/15 02:40:50;;;;;;;43.13;15.27;;;7.20;99.90;;;;;;5055457;28;20056;-71
2022/01/15 02:43:20;;;;;;;43.80;14.93;;;7.20;99.90;;;;;;5066254;28;20056;-72
2022/01/15 02:45:55;;;;;;;42.10;14.60;;;7.20;99.90;;;;;;5059461;28;20031;-72
2022/01/15 02:48:23;;;;;;;35.85;13.25;;;7.20;99.90;;;;;;5057510;28;20557;-72
2022/01/15 02:50:49;;;;;;;34.92;12.68;;;7.10;99.90;;;;;;5066239;28;20161;-72
2022/01/15 02:53:16;;;;;;;39.28;12.82;;;7.10;99.90;;;;;;5035328;28;20120;-72
2022/01/15 02:55:47;;;;;;;37.53;14.20;;;7.00;99.90;;;;;;5057970;28;20091;-73
2022/01/15 02:58:13;;;;;;;35.70;12.40;;;7.00;99.90;;;;;;5058897;28;20059;-72
2022/01/15 03:00:40;;;;;;;38.22;12.82;;;6.90;99.90;;;;;;5048939;28;20032;-72
2022/01/15 03:03:06;;;;;;;33.47;13.70;;;6.90;99.90;;;;;;5072179;28;20024;-73
2022/01/15 03:05:35;;;;;;;35.28;12.52;;;6.90;99.90;;;;;;5058683;28;20162;-70
2022/01/15 03:08:00;;;;;;;38.75;12.95;;;6.90;99.90;;;;;;5052184;28;20479;-71
2022/01/15 03:10:26;;;;;;;39.30;12.55;;;6.90;99.90;;;;;;5052969;28;20029;-71
2022/01/15 03:12:56;;;;;;;34.75;12.10;;;6.90;99.90;;;;;;5052438;28;20087;-72
2022/01/15 03:15:22;;;;;;;36.40;12.38;;;6.90;99.90;;;;;;5051982;28;20055;-72
2022/01/15 03:17:48;;;;;;;38.70;13.35;;;6.90;99.90;;;;;;5050063;28;20440;-71
2022/01/15 03:20:17;;;;;;;35.78;12.57;;;6.80;99.90;;;;;;5059284;28;20100;-72
2022/01/15 03:22:43;;;;;;;37.30;12.40;;;6.80;99.90;;;;;;5052306;28;20029;-72
2022/01/15 03:25:09;;;;;;;41.45;13.20;;;6.90;99.90;;;;;;5047914;28;20048;-72
2022/01/15 03:27:35;;;;;;;45.45;14.95;;;6.90;99.90;;;;;;5070110;28;20466;-71
2022/01/15 03:30:01;;;;;;;39.90;12.57;;;6.90;99.90;;;;;;5059359;28;20029;-72
2022/01/15 03:32:26;;;;;;;39.35;12.27;;;6.90;99.90;;;;;;5066415;28;20029;-71
2022/01/15 03:34:52;;;;;;;39.08;12.13;;;6.80;99.90;;;;;;5051361;28;20029;-71
2022/01/15 03:37:18;;;;;;;41.03;11.90;;;6.80;99.90;;;;;;5063241;28;20339;-73
2022/01/15 03:39:45;;;;;;;41.30;12.77;;;6.90;99.90;;;;;;5064074;28;20020;-71
2022/01/15 03:42:12;;;;;;;41.13;11.75;;;6.90;99.90;;;;;;5051423;28;20147;-72
2022/01/15 03:44:46;;;;;;;36.53;11.30;;;6.80;99.90;;;;;;5033209;28;20060;-71
2022/01/15 03:47:13;;;;;;;35.33;11.40;;;6.80;99.90;;;;;;5051161;28;20486;-73
2022/01/15 03:49:40;;;;;;;34.17;11.13;;;6.80;99.90;;;;;;5064732;28;20164;-72
2022/01/15 03:52:06;;;;;;;40.92;11.73;;;6.80;99.90;;;;;;5061501;28;20032;-72
2022/01/15 03:54:32;;;;;;;37.95;12.80;;;6.70;99.90;;;;;;5064543;28;20043;-73
2022/01/15 03:56:58;;;;;;;35.53;11.20;;;6.70;99.90;;;;;;5060137;28;20063;-73
2022/01/15 03:59:24;;;;;;;36.15;10.27;;;6.70;99.90;;;;;;5062560;28;20025;-73
2022/01/15 04:01:50;;;;;;;40.08;11.77;;;6.80;99.90;;;;;;5058750;28;20037;-74
2022/01/15 04:04:16;;;;;;;39.45;12.38;;;6.80;99.90;;;;;;5067278;28;20074;-72
2022/01/15 04:06:42;;;;;;;37.55;11.95;;;6.80;99.90;;;;;;5066161;28;20104;-71
2022/01/15 04:09:08;;;;;;;35.78;11.75;;;6.80;99.90;;;;;;5064469;28;20155;-73
2022/01/15 04:11:34;;;;;;;42.30;12.07;;;6.80;99.90;;;;;;5058978;28;20428;-71
2022/01/15 04:14:01;;;;;;;38.58;12.18;;;6.70;99.90;;;;;;5058762;28;20095;-71
2022/01/15 04:16:28;;;;;;;39.10;11.80;;;6.70;99.90;;;;;;5067088;28;20048;-72
2022/01/15 04:18:55;;;;;;;37.15;11.55;;;6.70;99.90;;;;;;5054936;28;20017;-73
2022/01/15 04:21:21;;;;;;;37.28;11.60;;;6.70;99.90;;;;;;5052551;28;20051;-72
2022/01/15 04:23:46;;;;;;;38.15;13.20;;;6.70;99.90;;;;;;5036990;28;20478;-71
2022/01/15 04:26:12;;;;;;;46.15;13.70;;;6.70;99.90;;;;;;5060260;28;20037;-71
2022/01/15 04:28:37;;;;;;;41.47;13.15;;;6.70;99.90;;;;;;5074940;28;20034;-73
2022/01/15 04:31:07;;;;;;;44.00;13.98;;;6.70;99.90;;;;;;5072650;28;20091;-73
2022/01/15 04:33:35;;;;;;;46.45;14.70;;;6.70;99.90;;;;;;5054557;28;20438;-72
2022/01/15 04:36:01;;;;;;;46.53;13.75;;;6.60;99.90;;;;;;5054281;28;20041;-73
2022/01/15 04:38:28;;;;;;;46.08;14.25;;;6.60;99.90;;;;;;5054862;28;20053;-71
2022/01/15 04:40:54;;;;;;;44.97;12.77;;;6.60;99.90;;;;;;5063266;28;20028;-74
2022/01/15 04:43:19;;;;;;;49.20;15.05;;;6.50;99.90;;;;;;5067335;28;20101;-74
2022/01/15 04:45:45;;;;;;;42.50;13.63;;;6.50;99.90;;;;;;5064181;28;20087;-72
2022/01/15 04:48:10;;;;;;;45.15;14.00;;;6.40;99.90;;;;;;5053860;28;20039;-74
2022/01/15 04:50:36;;;;;;;44.88;15.15;;;6.40;99.90;;;;;;5055220;28;20032;-72
2022/01/15 04:53:02;;;;;;;42.10;13.65;;;6.40;99.90;;;;;;5054778;28;20078;-71
2022/01/15 04:55:27;;;;;;;46.85;15.98;;;6.40;99.90;;;;;;5065428;28;20090;-71
2022/01/15 04:57:53;;;;;;;58.72;18.65;;;6.30;99.90;;;;;;5056337;28;20425;-72
2022/01/15 05:00:19;;;;;;;51.95;14.50;;;6.30;99.90;;;;;;5073750;28;20021;-73
2022/01/15 05:02:44;;;;;;;44.15;15.38;;;6.20;99.90;;;;;;5072372;28;20020;-71
2022/01/15 05:05:11;;;;;;;48.55;14.65;;;6.20;99.90;;;;;;5054175;28;20044;-72
2022/01/15 05:07:36;;;;;;;194.73;28.33;;;6.20;99.90;;;;;;5054233;28;20029;-72
2022/01/15 05:10:04;;;;;;;62.17;16.67;;;6.20;99.90;;;;;;5072506;28;20457;-71
2022/01/15 05:12:40;;;;;;;116.35;21.10;;;6.20;99.90;;;;;;5054177;28;20037;-72
2022/01/15 05:15:07;;;;;;;62.10;16.92;;;6.20;99.90;;;;;;5068008;28;20474;-72
2022/01/15 05:17:32;;;;;;;69.50;16.13;;;6.10;99.90;;;;;;5053389;28;20025;-73
2022/01/15 05:19:58;;;;;;;62.80;16.13;;;6.10;99.90;;;;;;5057891;28;20024;-70
2022/01/15 05:22:24;;;;;;;55.58;16.67;;;6.10;99.90;;;;;;5069258;28;20213;-71
2022/01/15 05:24:49;;;;;;;58.13;15.65;;;6.10;99.90;;;;;;5060847;28;20041;-72
2022/01/15 05:27:15;;;;;;;101.95;18.48;;;6.10;99.90;;;;;;5068937;28;20039;-73
2022/01/15 05:29:41;;;;;;;45.17;15.07;;;6.00;99.90;;;;;;5066090;28;20471;-72
2022/01/15 05:32:07;;;;;;;178.35;28.45;;;5.90;99.90;;;;;;5065181;28;20029;-71
2022/01/15 05:34:33;;;;;;;68.70;16.40;;;5.90;99.90;;;;;;5060603;28;20037;-72
2022/01/15 05:36:59;;;;;;;66.85;16.08;;;5.80;99.90;;;;;;5068093;28;20032;-70
2022/01/15 05:39:24;;;;;;;48.33;14.77;;;5.80;99.90;;;;;;5073012;28;20024;-72
2022/01/15 05:41:50;;;;;;;61.33;14.02;;;5.90;99.90;;;;;;5063876;28;20081;-70
2022/01/15 05:44:16;;;;;;;44.28;13.77;;;5.90;99.90;;;;;;5061417;28;20115;-73
2022/01/15 05:46:41;;;;;;;76.25;15.32;;;5.90;99.90;;;;;;5054197;28;20538;-71
2022/01/15 05:49:07;;;;;;;58.13;14.95;;;5.80;99.90;;;;;;5054532;28;20025;-70
2022/01/15 05:51:32;;;;;;;55.38;15.13;;;5.80;99.90;;;;;;5072190;28;20032;-70
2022/01/15 05:53:59;;;;;;;80.57;15.85;;;5.80;99.90;;;;;;5063967;28;20029;-72
2022/01/15 05:56:26;;;;;;;117.60;18.13;;;5.80;99.90;;;;;;5052902;28;20029;-72
2022/01/15 05:58:51;;;;;;;40.65;12.93;;;5.80;99.90;;;;;;5070992;28;20225;-73
2022/01/15 06:01:17;;;;;;;41.15;12.07;;;5.70;99.90;;;;;;5062174;28;20032;-70
2022/01/15 06:03:43;;;;;;;95.13;14.73;;;5.70;99.90;;;;;;5058718;28;20098;-74
2022/01/15 06:06:08;;;;;;;113.85;16.65;;;5.70;99.90;;;;;;5071179;28;20033;-71
2022/01/15 06:08:34;;;;;;;48.83;13.90;;;5.60;99.90;;;;;;5072726;28;20039;-70
2022/01/15 06:10:59;;;;;;;41.08;12.95;;;5.70;99.90;;;;;;5070921;28;20461;-72
2022/01/15 06:13:25;;;;;;;122.32;19.13;;;5.70;99.90;;;;;;5066570;28;20028;-72
2022/01/15 06:15:51;;;;;;;313.67;36.00;;;5.70;99.90;;;;;;5059616;28;20029;-71
2022/01/15 06:18:17;;;;;;;466.30;54.20;;;5.70;99.90;;;;;;5038723;28;20478;-71
2022/01/15 06:20:42;;;;;;;44.05;14.07;;;5.70;99.90;;;;;;5053032;28;20110;-73
2022/01/15 06:23:09;;;;;;;49.25;13.13;;;5.70;99.90;;;;;;5052799;28;20032;-71
2022/01/15 06:25:35;;;;;;;178.70;21.90;;;5.70;99.90;;;;;;5054265;28;20481;-72
2022/01/15 06:28:01;;;;;;;51.28;13.55;;;5.70;99.90;;;;;;5065105;28;20033;-72
2022/01/15 06:30:26;;;;;;;51.70;12.63;;;5.70;99.90;;;;;;5058815;28;20143;-72
2022/01/15 06:32:52;;;;;;;56.55;13.73;;;5.60;99.90;;;;;;5060074;28;20029;-72
2022/01/15 06:35:18;;;;;;;110.50;18.20;;;5.70;99.90;;;;;;5057783;28;20055;-73
2022/01/15 06:37:47;;;;;;;100.93;15.77;;;5.60;99.90;;;;;;5059552;28;20029;-71
2022/01/15 06:40:15;;;;;;;346.45;39.50;;;5.60;99.90;;;;;;5060605;28;20024;-71
2022/01/15 06:42:40;;;;;;;69.13;15.57;;;5.60;99.90;;;;;;5060847;28;20032;-71
2022/01/15 06:45:07;;;;;;;163.15;20.10;;;5.60;99.90;;;;;;5064570;28;20847;-73
2022/01/15 06:47:32;;;;;;;88.57;17.30;;;5.60;99.90;;;;;;5057757;28;20031;-71
2022/01/15 06:49:58;;;;;;;82.22;16.05;;;5.60;99.90;;;;;;5062529;28;20099;-72
2022/01/15 06:52:24;;;;;;;114.57;18.35;;;5.60;99.90;;;;;;5059414;28;20195;-72
2022/01/15 06:54:50;;;;;;;95.30;16.63;;;5.60;99.90;;;;;;5059174;28;20021;-73
2022/01/15 06:57:16;;;;;;;108.00;16.38;;;5.60;99.90;;;;;;5060342;28;20043;-72
2022/01/15 06:59:44;;;;;;;68.93;12.48;;;5.60;99.90;;;;;;5060998;28;20112;-73
2022/01/15 07:02:11;;;;;;;71.68;14.68;;;5.60;99.90;;;;;;5060298;28;20047;-71
2022/01/15 07:04:37;;;;;;;67.18;14.13;;;5.60;99.90;;;;;;5060007;28;20127;-72
2022/01/15 07:07:03;;;;;;;119.72;15.82;;;5.60;99.90;;;;;;5059641;28;20028;-72
2022/01/15 07:09:29;;;;;;;86.25;13.90;;;5.50;99.90;;;;;;5061097;28;20394;-73
2022/01/15 07:11:54;;;;;;;75.75;13.18;;;5.60;99.90;;;;;;5060166;28;20064;-72
2022/01/15 07:14:20;;;;;;;55.00;12.70;;;5.50;99.90;;;;;;5050395;28;20031;-71
2022/01/15 07:16:45;;;;;;;82.80;13.68;;;5.50;99.90;;;;;;5059958;28;20112;-71
2022/01/15 07:19:11;;;;;;;58.60;11.35;;;5.50;99.90;;;;;;5050986;28;20025;-73
2022/01/15 07:21:36;;;;;;;59.55;12.90;;;5.40;99.90;;;;;;5050923;28;20467;-72
2022/01/15 07:24:02;;;;;;;148.20;19.20;;;5.40;99.90;;;;;;5053476;28;20036;-73
2022/01/15 07:26:28;;;;;;;78.82;14.70;;;5.40;99.90;;;;;;5056223;28;20482;-73
2022/01/15 07:28:53;;;;;;;77.10;13.90;;;5.40;99.90;;;;;;5053196;28;20386;-72
2022/01/15 07:31:19;;;;;;;72.20;13.18;;;5.40;99.90;;;;;;5065835;28;20037;-72
2022/01/15 07:33:45;;;;;;;73.80;13.15;;;5.40;99.90;;;;;;5068804;28;20032;-73
2022/01/15 07:36:12;;;;;;;67.40;13.10;;;5.40;99.90;;;;;;5052968;28;20377;-72
2022/01/15 07:38:37;;;;;;;59.15;12.98;;;5.40;99.90;;;;;;5054817;28;20017;-72
2022/01/15 07:41:05;;;;;;;68.32;11.40;;;5.30;99.90;;;;;;5056825;28;20021;-73
2022/01/15 07:43:31;;;;;;;74.35;12.65;;;5.20;99.90;;;;;;5056912;28;20041;-71
2022/01/15 07:45:57;;;;;;;89.60;14.90;;;5.20;99.90;;;;;;5062026;28;20029;-73
2022/01/15 07:48:22;;;;;;;62.90;12.07;;;5.20;99.90;;;;;;5073330;28;20021;-73
2022/01/15 07:50:49;;;;;;;49.72;13.90;;;5.20;99.90;;;;;;5069464;28;20025;-73
2022/01/15 07:53:14;;;;;;;64.93;12.95;;;5.20;99.90;;;;;;5075079;28;20024;-73
2022/01/15 07:55:40;;;;;;;116.93;16.90;;;5.20;99.90;;;;;;5063049;28;20032;-72
2022/01/15 07:58:06;;;;;;;38.35;9.55;;;5.10;99.90;;;;;;5056111;28;20473;-72
2022/01/15 08:00:32;;;;;;;76.57;14.10;;;5.10;99.90;;;;;;5060743;28;20029;-72
2022/01/15 08:02:57;;;;;;;63.20;13.50;;;5.00;99.90;;;;;;5062566;28;20025;-72
2022/01/15 08:05:23;;;;;;;70.30;14.32;;;5.00;99.90;;;;;;5044400;28;20421;-72
2022/01/15 08:07:48;;;;;;;80.95;12.63;;;5.10;99.90;;;;;;5061824;28;20550;-72
2022/01/15 08:10:15;;;;;;;66.90;14.05;;;5.00;99.90;;;;;;5064648;28;20031;-72
2022/01/15 08:12:45;;;;;;;57.60;12.88;;;5.00;99.90;;;;;;5063426;28;20037;-73
2022/01/15 08:15:11;;;;;;;68.13;14.10;;;5.00;99.90;;;;;;5063547;28;20028;-71
2022/01/15 08:17:37;;;;;;;46.50;10.80;;;5.00;99.90;;;;;;5061011;28;20028;-73
2022/01/15 08:20:03;;;;;;;69.70;15.00;;;5.00;99.90;;;;;;5062667;28;20056;-73
2022/01/15 08:22:29;;;;;;;81.68;17.20;;;5.00;99.90;;;;;;5063621;28;20032;-73
2022/01/15 08:24:54;;;;;;;118.93;18.73;;;5.00;99.90;;;;;;5062344;28;20041;-71
2022/01/15 08:27:20;;;;;;;60.83;14.00;;;5.10;99.90;;;;;;5063829;28;20032;-72
2022/01/15 08:29:45;;;;;;;52.83;13.93;;;5.10;99.90;;;;;;5063389;28;20108;-71
2022/01/15 08:32:11;;;;;;;63.42;16.00;;;5.10;99.90;;;;;;5060217;28;20397;-73
2022/01/15 08:34:37;;;;;;;59.00;15.38;;;5.10;99.90;;;;;;5062996;28;20029;-73
2022/01/15 08:37:03;;;;;;;79.28;16.33;;;5.00;99.90;;;;;;5062744;28;20453;-72
2022/01/15 08:39:29;;;;;;;64.93;14.82;;;5.10;99.90;;;;;;5063387;28;20036;-71
2022/01/15 08:41:54;;;;;;;64.90;16.65;;;5.10;99.90;;;;;;5062761;28;20062;-71
2022/01/15 08:44:22;;;;;;;59.08;15.95;;;5.00;99.90;;;;;;5062679;28;20063;-73
2022/01/15 08:46:48;;;;;;;101.10;18.77;;;5.00;99.90;;;;;;5061392;28;20024;-73
2022/01/15 08:49:14;;;;;;;79.07;17.27;;;5.00;99.90;;;;;;5062587;28;20036;-73
2022/01/15 08:51:39;;;;;;;129.13;21.63;;;4.90;99.90;;;;;;5059570;28;20478;-72
2022/01/15 08:54:05;;;;;;;48.97;17.52;;;4.90;99.90;;;;;;5055282;28;20115;-72
2022/01/15 08:56:31;;;;;;;86.70;19.17;;;4.90;99.90;;;;;;5060061;28;20040;-73
2022/01/15 08:58:56;;;;;;;65.47;18.50;;;5.00;99.90;;;;;;5067067;28;20380;-72
2022/01/15 09:01:22;;;;;;;97.10;22.45;;;5.00;99.90;;;;;;5068037;28;20037;-72
2022/01/15 09:03:48;;;;;;;111.32;22.33;;;5.10;99.90;;;;;;5043133;28;20045;-72
2022/01/15 09:06:13;;;;;;;113.78;21.85;;;5.10;99.90;;;;;;5066859;28;20104;-70
2022/01/15 09:08:42;;;;;;;58.67;20.00;;;5.10;99.90;;;;;;5067000;28;20082;-70
2022/01/15 09:11:07;;;;;;;80.43;20.27;;;5.10;99.90;;;;;;5053953;28;20020;-72
2022/01/15 09:13:33;;;;;;;58.13;18.10;;;5.10;99.90;;;;;;5064994;28;20107;-71
2022/01/15 09:15:59;;;;;;;48.10;18.17;;;5.10;99.90;;;;;;5064499;28;20033;-72
2022/01/15 09:18:24;;;;;;;67.35;18.90;;;5.10;99.90;;;;;;5059552;28;20029;-72
2022/01/15 09:20:50;;;;;;;47.25;17.95;;;5.10;99.90;;;;;;5056206;28;20040;-71
2022/01/15 09:23:17;;;;;;;52.63;19.25;;;5.20;99.90;;;;;;5061250;28;20039;-71
2022/01/15 09:25:42;;;;;;;65.97;19.13;;;5.20;99.90;;;;;;5063980;28;20028;-72
2022/01/15 09:30:53;;;;;;;54.10;17.85;;;5.30;99.90;;;;;;5063204;28;20035;-72
2022/01/15 09:33:19;;;;;;;54.58;19.58;;;5.40;99.90;;;;;;5064528;28;20037;-72
2022/01/15 09:35:44;;;;;;;63.58;19.60;;;5.40;99.90;;;;;;5060486;28;20032;-73
2022/01/15 09:38:10;;;;;;;63.47;19.35;;;5.50;99.90;;;;;;5059324;28;20021;-72
2022/01/15 09:40:39;;;;;;;53.33;20.00;;;5.50;99.90;;;;;;5062046;28;20025;-72
2022/01/15 09:43:04;;;;;;;86.30;20.42;;;5.50;99.90;;;;;;5055432;28;20028;-72
2022/01/15 09:45:31;;;;;;;88.43;21.25;;;5.40;99.90;;;;;;5059598;28;20052;-72
2022/01/15 09:48:01;;;;;;;147.90;25.20;;;5.40;99.90;;;;;;5061370;28;20036;-73
2022/01/15 09:50:29;;;;;;;48.42;17.42;;;5.40;99.90;;;;;;5063212;28;20029;-71
2022/01/15 09:52:55;;;;;;;56.05;20.00;;;5.50;99.90;;;;;;5061943;28;20021;-71
2022/01/15 09:55:23;;;;;;;95.80;21.25;;;5.50;99.90;;;;;;5065623;28;20060;-72
2022/01/15 09:57:50;;;;;;;111.82;22.90;;;5.60;99.90;;;;;;5053803;28;20386;-72
2022/01/15 10:00:18;;;;;;;82.40;22.75;;;5.50;99.90;;;;;;5067616;28;20021;-73
2022/01/15 10:02:46;;;;;;;160.77;29.15;;;5.60;99.90;;;;;;5071990;28;20116;-73
2022/01/15 10:05:13;;;;;;;85.65;22.52;;;5.60;99.90;;;;;;5071145;28;20049;-73
2022/01/15 10:07:57;;;;;;;74.97;21.45;;;5.70;99.90;;;;;;5064047;28;20476;-73
2022/01/15 10:10:24;;;;;;;63.40;20.52;;;5.80;99.90;;;;;;5059300;28;20036;-72
2022/01/15 10:12:50;;;;;;;47.78;18.80;;;5.80;99.90;;;;;;5034321;28;20028;-73
2022/01/15 10:15:17;;;;;;;67.05;20.75;;;5.80;99.90;;;;;;5062484;28;20024;-73
2022/01/15 10:17:44;;;;;;;68.57;20.50;;;5.80;99.90;;;;;;5063904;28;20389;-72
2022/01/15 10:20:13;;;;;;;55.25;16.98;;;5.80;99.90;;;;;;5068950;28;20108;-72
2022/01/15 10:22:47;;;;;;;48.83;18.20;;;5.80;99.90;;;;;;5052534;28;20063;-73
2022/01/15 10:25:20;;;;;;;108.07;20.83;;;5.70;99.90;;;;;;5062246;28;20068;-71
2022/01/15 10:27:51;;;;;;;46.80;16.95;;;5.70;99.90;;;;;;5034391;28;20098;-70
2022/01/15 10:30:18;;;;;;;51.30;17.02;;;5.70;99.90;;;;;;5058434;28;20025;-73
2022/01/15 10:33:01;;;;;;;57.60;17.30;;;5.70;99.90;;;;;;5054002;28;20029;-73
2022/01/15 10:35:40;;;;;;;53.08;17.33;;;5.70;99.90;;;;;;5055817;28;20390;-73
2022/01/15 10:38:13;;;;;;;67.95;18.60;;;5.80;99.90;;;;;;5062905;28;20025;-73
2022/01/15 10:40:43;;;;;;;57.28;19.02;;;5.80;99.90;;;;;;5059217;28;20470;-72
2022/01/15 10:43:10;;;;;;;50.83;18.17;;;5.80;99.90;;;;;;5066418;28;20029;-73
2022/01/15 10:45:54;;;;;;;56.50;19.13;;;5.90;99.90;;;;;;5063360;28;20044;-72
2022/01/15 10:48:26;;;;;;;86.38;22.02;;;5.90;99.90;;;;;;5061728;28;20093;-74
2022/01/15 10:50:56;;;;;;;;;;;5.90;99.90;;;;;;5045909;28;20032;-73
2022/01/15 10:53:37;;;;;;;54.92;14.55;;;5.90;99.90;;;;;;5052726;28;19912;-71
2022/01/15 10:56:05;;;;;;;51.92;17.60;;;5.80;99.90;;;;;;5067913;28;20024;-72
2022/01/15 10:58:30;;;;;;;132.55;23.98;;;5.70;99.90;;;;;;5053916;28;20447;-69
2022/01/15 11:00:56;;;;;;;63.38;17.95;;;5.70;99.90;;;;;;5066312;28;20029;-70
2022/01/15 11:03:22;;;;;;;57.97;19.20;;;5.70;99.90;;;;;;5052347;28;20378;-71
2022/01/15 11:05:53;;;;;;;65.45;16.67;;;5.80;99.90;;;;;;5052520;28;20078;-72
2022/01/15 11:08:20;;;;;;;54.25;17.85;;;5.80;99.90;;;;;;5072820;28;20070;-72
2022/01/15 11:10:51;;;;;;;57.22;18.65;;;5.90;99.90;;;;;;5076590;28;20021;-71
2022/01/15 11:13:23;;;;;;;59.95;17.17;;;5.90;99.90;;;;;;5076362;28;20028;-71
2022/01/15 11:15:54;;;;;;;67.47;17.85;;;5.90;99.90;;;;;;5076351;28;20032;-70
2022/01/15 11:18:28;;;;;;;80.28;21.50;;;5.90;99.90;;;;;;5076272;28;20025;-73
2022/01/15 11:20:58;;;;;;;80.10;19.88;;;5.90;99.90;;;;;;5076025;28;20390;-72
2022/01/15 11:23:25;;;;;;;84.45;21.08;;;6.00;99.90;;;;;;5058610;28;20087;-73
2022/01/15 11:25:53;;;;;;;82.55;22.02;;;6.00;99.90;;;;;;5071092;28;20032;-71
2022/01/15 11:28:24;;;;;;;85.95;19.48;;;6.10;99.90;;;;;;5076208;28;20060;-71
2022/01/15 11:30:54;;;;;;;68.20;23.05;;;6.10;99.90;;;;;;5073186;28;20028;-70
2022/01/15 11:33:26;;;;;;;53.60;19.85;;;6.10;99.90;;;;;;5061335;28;20029;-71
2022/01/15 11:35:53;;;;;;;;;;;6.10;99.90;;;;;;5055776;28;20497;-72
2022/01/15 11:38:36;;;;;;;68.95;20.65;;;6.00;99.90;;;;;;5055800;28;20007;-70
2022/01/15 11:41:02;;;;;;;70.00;21.02;;;6.00;99.90;;;;;;5055814;28;20033;-71
2022/01/15 11:43:30;;;;;;;67.15;21.42;;;6.00;99.90;;;;;;5055332;28;20086;-71
2022/01/15 11:45:58;;;;;;;54.22;18.83;;;6.00;99.90;;;;;;5056458;28;20050;-72
2022/01/15 11:48:35;;;;;;;59.35;18.83;;;6.00;99.90;;;;;;5045639;28;20035;-71
2022/01/15 11:51:18;;;;;;;61.17;19.20;;;6.00;99.90;;;;;;5054152;28;20028;-72
2022/01/15 11:53:57;;;;;;;50.38;17.30;;;6.00;99.90;;;;;;5057033;28;20068;-70
2022/01/15 11:56:37;;;;;;;46.83;14.68;;;5.90;99.90;;;;;;5063048;28;20115;-72
2022/01/15 11:59:25;;;;;;;48.45;18.10;;;5.80;99.90;;;;;;5064554;28;20037;-71
2022/01/15 12:01:56;;;;;;;51.72;17.88;;;5.70;99.90;;;;;;5063141;28;20442;-71
2022/01/15 12:04:30;;;;;;;57.97;17.02;;;5.70;99.90;;;;;;5063375;28;20105;-72
2022/01/15 12:07:05;;;;;;;53.22;17.25;;;5.70;99.90;;;;;;5063952;28;20127;-71
2022/01/15 12:09:34;;;;;;;53.90;17.50;;;5.80;99.90;;;;;;5063891;28;20061;-74
2022/01/15 12:12:40;;;;;;;45.75;17.10;;;5.80;99.90;;;;;;5063977;28;20063;-72
2022/01/15 12:15:09;;;;;;;45.20;16.17;;;5.90;99.90;;;;;;5063810;28;20029;-72
2022/01/15 12:17:46;;;;;;;46.42;15.85;;;5.90;99.90;;;;;;5061088;28;20027;-71
2022/01/15 12:20:32;;;;;;;48.78;16.70;;;6.00;99.90;;;;;;5061456;28;20078;-71
2022/01/15 12:23:25;;;;;;;50.75;16.52;;;6.10;99.90;;;;;;5053615;28;20028;-72
2022/01/15 12:25:53;;;;;;;45.92;15.52;;;6.10;99.90;;;;;;5063676;28;20041;-71
2022/01/15 12:28:21;;;;;;;40.90;14.05;;;6.00;99.90;;;;;;5063121;28;20375;-73
2022/01/15 12:30:50;;;;;;;36.08;12.27;;;6.00;99.90;;;;;;5074800;28;20103;-72
2022/01/15 12:33:16;;;;;;;39.70;13.75;;;6.00;99.90;;;;;;5074740;28;20028;-74
2022/01/15 12:35:51;;;;;;;44.17;14.27;;;6.00;99.90;;;;;;5071060;28;20025;-71
2022/01/15 12:38:21;;;;;;;45.88;14.63;;;6.00;99.90;;;;;;5067083;28;20031;-72
2022/01/15 12:40:53;;;;;;;40.63;13.85;;;6.10;99.90;;;;;;5074416;28;20028;-73
2022/01/15 12:43:29;;;;;;;36.90;12.00;;;6.00;99.90;;;;;;5074479;28;20021;-73
2022/01/15 12:46:03;;;;;;;33.92;11.88;;;6.00;99.90;;;;;;5074523;28;20040;-73
2022/01/15 12:48:32;;;;;;;40.83;13.77;;;5.80;99.90;;;;;;5056479;28;20730;-72
2022/01/15 12:51:04;;;;;;;41.78;13.30;;;5.80;99.90;;;;;;5073266;28;20086;-73
2022/01/15 12:53:31;;;;;;;;;;;5.90;99.90;;;;;;5075084;28;20466;-72
2022/01/15 12:55:59;;;;;;;35.17;11.55;;;5.90;99.90;;;;;;5056216;28;19904;-73
2022/01/15 12:58:28;;;;;;;25.10;9.00;;;5.80;99.90;;;;;;5066164;28;20026;-72
2022/01/15 13:00:54;;;;;;;27.40;9.35;;;5.70;99.90;;;;;;5064352;28;20025;-72